Time;durP1;ratioP1;P1;durP2;ratioP2;P2;SDS_P1;SDS_P2;PMS_P1;PMS_P2;Temp;Humidity;BMP_temperature;BMP_pressure;BME280_temperature;BME280_humidity;BME280_pressure;Samples;Min_cycle;Max_cycle;Signal;HPM_P1;HPM_P2
2023/09/27 00:00:15;;;;;;;7.82;3.10;;;;;;;19.37;70.48;95172.84;5070572;28;20450;-70
2023/09/27 00:02:43;;;;;;;11.77;3.55;;;;;;;19.36;69.84;95175.81;5069883;28;20432;-70
2023/09/27 00:05:10;;;;;;;10.70;3.05;;;;;;;19.33;69.30;95162.97;5068700;28;20410;-70
2023/09/27 00:07:37;;;;;;;8.55;3.55;;;;;;;19.32;69.52;95164.00;5070736;28;20409;-70
2023/09/27 00:10:04;;;;;;;10.60;2.90;;;;;;;19.34;69.54;95172.56;5071115;28;20601;-70
2023/09/27 00:12:29;;;;;;;12.25;3.38;;;;;;;19.28;69.84;95165.59;5070067;28;20410;-71
2023/09/27 00:14:57;;;;;;;7.00;3.42;;;;;;;19.21;70.43;95171.16;5070955;28;20243;-70
2023/09/27 00:17:22;;;;;;;9.77;3.25;;;;;;;19.15;70.74;95167.66;5070013;28;20918;-70
2023/09/27 00:19:48;;;;;;;4.03;2.72;;;;;;;19.03;70.89;95167.00;5070783;28;20202;-70
2023/09/27 00:22:13;;;;;;;11.43;3.50;;;;;;;18.89;70.47;95141.03;5070176;28;21318;-70
2023/09/27 00:24:39;;;;;;;7.13;2.95;;;;;;;18.92;70.98;95157.34;5069994;28;20607;-70
2023/09/27 00:27:05;;;;;;;10.25;3.20;;;;;;;18.88;71.42;95161.56;5069884;28;20397;-70
2023/09/27 00:29:31;;;;;;;11.38;3.60;;;;;;;18.82;71.54;95146.59;5069177;28;20181;-71
2023/09/27 00:31:57;;;;;;;18.83;4.53;;;;;;;18.78;71.77;95150.81;5070622;28;20166;-70
2023/09/27 00:34:23;;;;;;;8.40;3.30;;;;;;;18.78;71.76;95148.13;5069348;28;20453;-70
2023/09/27 00:36:49;;;;;;;9.88;3.50;;;;;;;18.80;71.73;95146.03;5069185;28;20418;-70
2023/09/27 00:39:14;;;;;;;11.90;3.53;;;;;;;18.80;71.78;95146.03;5069489;28;20445;-70
2023/09/27 00:41:40;;;;;;;6.50;3.35;;;;;;;18.76;71.98;95140.41;5070247;28;20262;-70
2023/09/27 00:44:05;;;;;;;14.98;3.65;;;;;;;18.79;71.57;95141.75;5070405;28;20189;-70
2023/09/27 00:46:32;;;;;;;12.82;3.38;;;;;;;18.75;71.76;95140.66;5070118;28;20185;-70
2023/09/27 00:48:58;;;;;;;12.93;3.60;;;;;;;18.77;71.96;95135.84;5054876;28;20445;-70
2023/09/27 00:51:24;;;;;;;9.32;3.42;;;;;;;18.79;72.00;95152.41;5069458;28;20941;-70
2023/09/27 00:53:50;;;;;;;12.15;4.10;;;;;;;18.86;71.80;95153.00;5069493;28;20418;-71
2023/09/27 00:56:16;;;;;;;6.60;3.33;;;;;;;18.80;71.87;95151.38;5069118;28;20833;-70
2023/09/27 00:58:42;;;;;;;10.63;3.78;;;;;;;18.77;71.61;95149.19;5069050;28;20440;-70
2023/09/27 01:01:07;;;;;;;9.97;3.47;;;;;;;18.65;72.45;95143.25;5069446;28;20418;-70
2023/09/27 01:03:33;;;;;;;9.20;3.88;;;;;;;18.42;72.83;95121.13;5069270;28;20437;-70
2023/09/27 01:05:59;;;;;;;11.37;3.97;;;;;;;18.61;72.80;95150.13;5069526;28;20417;-70
2023/09/27 01:08:24;;;;;;;9.83;3.57;;;;;;;18.53;73.39;95150.56;5068980;28;20401;-70
2023/09/27 01:10:50;;;;;;;8.32;3.22;;;;;;;18.46;73.54;95148.91;5069978;28;20265;-70
2023/09/27 01:13:15;;;;;;;12.48;3.63;;;;;;;18.43;73.86;95149.41;5069696;28;20424;-70
2023/09/27 01:15:41;;;;;;;9.43;3.35;;;;;;;18.46;73.84;95153.44;5068942;28;20408;-70
2023/09/27 01:18:06;;;;;;;9.85;3.70;;;;;;;18.44;73.81;95144.88;5068644;28;20821;-70
2023/09/27 01:20:33;;;;;;;11.15;4.13;;;;;;;18.45;74.13;95146.50;5069036;28;20424;-70
2023/09/27 01:23:03;;;;;;;8.20;3.25;;;;;;;18.29;74.49;95131.41;5069511;28;20218;-70
2023/09/27 01:25:30;;;;;;;11.57;3.78;;;;;;;18.45;74.25;95141.16;5069185;28;20429;-70
2023/09/27 01:27:57;;;;;;;9.00;4.05;;;;;;;18.39;74.32;95145.66;5068553;28;20166;-71
2023/09/27 01:30:24;;;;;;;9.93;3.78;;;;;;;18.40;74.63;95151.78;5068786;28;20406;-70
2023/09/27 01:32:50;;;;;;;11.77;3.30;;;;;;;18.37;74.79;95153.09;5068397;28;20565;-70
2023/09/27 01:35:15;;;;;;;11.50;3.58;;;;;;;18.34;75.10;95145.59;5069637;28;20187;-70
2023/09/27 01:37:40;;;;;;;10.57;3.42;;;;;;;18.36;74.97;95142.66;5073298;28;20174;-70
2023/09/27 01:40:09;;;;;;;12.48;4.35;;;;;;;18.32;75.23;95155.72;5073858;28;20209;-70
2023/09/27 01:42:42;;;;;;;14.93;3.80;;;;;;;18.22;75.56;95144.94;5072604;28;20274;-70
2023/09/27 01:45:07;;;;;;;7.20;3.67;;;;;;;18.14;75.73;95132.06;5072538;28;20410;-70
2023/09/27 01:47:33;;;;;;;13.18;4.20;;;;;;;18.13;75.82;95134.97;5073113;28;20405;-70
2023/09/27 01:49:58;;;;;;;8.20;3.60;;;;;;;18.30;75.37;95144.50;5072683;28;20469;-70
2023/09/27 01:52:24;;;;;;;8.67;3.63;;;;;;;18.30;75.22;95149.81;5073152;28;20493;-70
2023/09/27 01:54:49;;;;;;;12.27;4.20;;;;;;;18.34;75.34;95150.91;5072365;28;20492;-70
2023/09/27 01:57:14;;;;;;;13.68;4.13;;;;;;;18.25;75.65;95146.31;5073376;28;20182;-70
2023/09/27 01:59:40;;;;;;;10.03;4.00;;;;;;;18.22;75.71;95150.28;5072412;28;20430;-70
2023/09/27 02:02:05;;;;;;;6.30;4.07;;;;;;;18.20;76.09;95149.72;5073371;28;20202;-70
2023/09/27 02:04:30;;;;;;;10.23;3.97;;;;;;;18.18;75.95;95143.81;5072508;28;20422;-70
2023/09/27 02:06:56;;;;;;;5.60;3.17;;;;;;;18.09;76.21;95130.13;5073113;28;20505;-70
2023/09/27 02:09:21;;;;;;;13.63;3.75;;;;;;;18.23;76.04;95151.06;5073271;28;20624;-71
2023/09/27 02:11:46;;;;;;;10.95;4.03;;;;;;;18.13;76.49;95142.97;5073257;28;20181;-70
2023/09/27 02:14:12;;;;;;;9.57;3.67;;;;;;;18.13;76.55;95143.78;5072396;28;20409;-70
2023/09/27 02:16:41;;;;;;;12.20;4.50;;;;;;;18.09;76.86;95145.31;5071811;28;20840;-70
2023/09/27 02:19:06;;;;;;;7.25;3.88;;;;;;;18.06;76.55;95149.31;5072843;28;21012;-70
2023/09/27 02:21:32;;;;;;;11.45;4.03;;;;;;;17.98;76.90;95141.75;5072901;28;20261;-71
2023/09/27 02:23:57;;;;;;;7.57;3.45;;;;;;;18.00;76.83;95149.47;5073025;28;20194;-70
2023/09/27 02:26:23;;;;;;;9.15;3.70;;;;;;;17.92;77.11;95142.75;5073002;28;20174;-70
2023/09/27 02:28:48;;;;;;;12.30;3.80;;;;;;;17.95;76.99;95149.44;5072436;28;20448;-71
2023/09/27 02:31:13;;;;;;;8.27;3.37;;;;;;;17.81;76.83;95129.56;5072599;28;21016;-70
2023/09/27 02:33:39;;;;;;;13.10;4.32;;;;;;;17.88;77.11;95152.28;5072762;28;20174;-70
2023/09/27 02:36:04;;;;;;;8.35;3.65;;;;;;;17.77;76.81;95134.56;5072778;28;20178;-70
2023/09/27 02:38:30;;;;;;;6.60;3.78;;;;;;;17.85;77.20;95150.13;5072713;28;20609;-70
2023/09/27 02:40:55;;;;;;;11.60;3.30;;;;;;;17.80;77.05;95138.59;5072482;28;20181;-70
2023/09/27 02:43:21;;;;;;;11.50;3.88;;;;;;;17.77;76.97;95145.22;5071675;28;20182;-70
2023/09/27 02:45:46;;;;;;;10.98;3.15;;;;;;;17.73;76.99;95152.91;5072521;28;20563;-70
2023/09/27 02:48:12;;;;;;;10.15;4.28;;;;;;;17.76;77.05;95153.47;5071749;28;20240;-70
2023/09/27 02:50:37;;;;;;;13.77;3.83;;;;;;;17.74;76.32;95153.69;5072402;28;20197;-70
2023/09/27 02:53:03;;;;;;;8.63;3.22;;;;;;;17.69;76.76;95158.97;5071889;28;20721;-71
2023/09/27 02:55:29;;;;;;;14.25;3.92;;;;;;;17.67;76.96;95159.22;5071598;28;20178;-70
2023/09/27 02:57:54;;;;;;;6.68;3.85;;;;;;;17.67;76.56;95161.88;5072194;28;20208;-71
2023/09/27 03:00:19;;;;;;;17.73;3.95;;;;;;;17.63;77.12;95158.13;5072147;28;20174;-70
2023/09/27 03:02:45;;;;;;;14.88;3.92;;;;;;;17.64;77.03;95162.38;5072065;28;20217;-71
2023/09/27 03:05:11;;;;;;;10.82;3.78;;;;;;;17.65;77.00;95158.66;5071798;28;20182;-70
2023/09/27 03:07:38;;;;;;;6.47;3.45;;;;;;;17.64;76.48;95165.03;5071737;28;20175;-70
2023/09/27 03:10:08;;;;;;;9.35;3.90;;;;;;;17.63;76.49;95160.78;5072011;28;20173;-71
2023/09/27 03:12:33;;;;;;;13.35;4.35;;;;;;;17.61;76.21;95173.50;5071921;28;20178;-71
2023/09/27 03:14:59;;;;;;;11.32;3.75;;;;;;;17.64;75.77;95170.34;5071683;28;20231;-70
2023/09/27 03:17:24;;;;;;;6.45;3.35;;;;;;;17.55;76.10;95155.06;5071944;28;20184;-70
2023/09/27 03:19:49;;;;;;;10.15;3.63;;;;;;;17.56;75.37;95153.97;5071670;28;20751;-70
2023/09/27 03:22:15;;;;;;;12.85;3.65;;;;;;;17.66;75.34;95168.25;5071595;28;20221;-71
2023/09/27 03:24:40;;;;;;;8.13;3.47;;;;;;;17.54;75.57;95145.44;5071636;28;20225;-70
2023/09/27 03:27:08;;;;;;;11.50;3.97;;;;;;;17.53;75.41;95157.94;5071786;28;20180;-70
2023/09/27 03:29:34;;;;;;;9.60;3.67;;;;;;;17.58;75.21;95171.31;5071715;28;20175;-71
2023/09/27 03:31:59;;;;;;;7.38;3.55;;;;;;;17.56;75.55;95173.41;5071307;28;20240;-70
2023/09/27 03:34:25;;;;;;;13.27;4.45;;;;;;;17.55;75.25;95179.81;5070200;28;20190;-70
2023/09/27 03:36:55;;;;;;;12.65;4.32;;;;;;;17.58;74.75;95181.97;5071407;28;20285;-70
2023/09/27 03:39:22;;;;;;;13.32;4.13;;;;;;;17.58;75.37;95173.97;5071040;28;20206;-70
2023/09/27 03:41:48;;;;;;;14.00;4.35;;;;;;;17.55;75.46;95171.84;5071275;28;20178;-70
2023/09/27 03:44:14;;;;;;;10.45;3.88;;;;;;;17.53;75.19;95178.44;5071450;28;20666;-70
2023/09/27 03:46:39;;;;;;;10.40;4.07;;;;;;;17.45;75.12;95173.53;5071660;28;20257;-70
2023/09/27 03:49:06;;;;;;;15.85;4.00;;;;;;;17.52;74.25;95180.31;5071694;28;20287;-70
2023/09/27 03:51:31;;;;;;;8.52;3.70;;;;;;;17.52;74.53;95184.81;5071275;28;20189;-70
2023/09/27 03:53:56;;;;;;;14.75;4.28;;;;;;;17.56;74.60;95178.75;5069818;28;20425;-70
2023/09/27 03:56:22;;;;;;;6.47;3.53;;;;;;;17.59;74.00;95186.25;5070632;28;20521;-70
2023/09/27 03:58:48;;;;;;;11.50;4.35;;;;;;;17.50;73.31;95166.41;5070776;28;20555;-70
2023/09/27 04:01:15;;;;;;;11.05;4.40;;;;;;;17.73;73.53;95191.25;5070501;28;20558;-70
2023/09/27 04:03:41;;;;;;;12.20;4.47;;;;;;;17.62;73.44;95177.81;5069159;28;20849;-70
2023/09/27 04:06:06;;;;;;;10.23;4.15;;;;;;;17.71;73.43;95188.84;5070862;28;20182;-70
2023/09/27 04:08:32;;;;;;;11.77;4.68;;;;;;;17.69;73.24;95190.94;5070619;28;20649;-70
2023/09/27 04:10:57;;;;;;;10.00;4.07;;;;;;;17.76;73.15;95188.91;5069955;28;20429;-70
2023/09/27 04:13:22;;;;;;;13.18;3.47;;;;;;;17.73;73.11;95192.03;5070716;28;20174;-70
2023/09/27 04:15:49;;;;;;;8.10;4.03;;;;;;;17.65;73.23;95179.97;5070688;28;20256;-70
2023/09/27 04:18:14;;;;;;;8.40;4.10;;;;;;;17.73;73.41;95196.59;5069254;28;20190;-70
2023/09/27 04:20:40;;;;;;;12.40;4.20;;;;;;;17.78;72.72;95193.97;5069900;28;20420;-70
2023/09/27 04:23:05;;;;;;;13.25;4.97;;;;;;;17.76;72.45;95201.41;5069176;28;20902;-70
2023/09/27 04:25:30;;;;;;;11.40;4.10;;;;;;;17.82;72.41;95192.41;5068918;28;20194;-70
2023/09/27 04:27:56;;;;;;;14.60;4.33;;;;;;;17.86;72.75;95185.56;5069235;28;20480;-70
2023/09/27 04:30:22;;;;;;;7.93;3.97;;;;;;;17.80;72.80;95186.56;5069066;28;20766;-70
2023/09/27 04:32:50;;;;;;;12.50;4.38;;;;;;;17.96;71.95;95191.00;5069327;28;20962;-70
2023/09/27 04:35:16;;;;;;;12.95;4.13;;;;;;;17.99;71.96;95195.81;5070393;28;20189;-70
2023/09/27 04:37:41;;;;;;;18.58;4.35;;;;;;;18.01;71.55;95199.06;5070203;28;20197;-70
2023/09/27 04:40:14;;;;;;;14.40;4.60;;;;;;;18.02;70.77;95190.81;5070323;28;20178;-70
2023/09/27 04:42:44;;;;;;;9.20;4.05;;;;;;;18.04;70.87;95199.38;5070291;28;20185;-70
2023/09/27 04:45:11;;;;;;;8.70;4.25;;;;;;;18.01;70.99;95204.38;5069849;28;20193;-70
2023/09/27 04:47:46;;;;;;;23.58;4.43;;;;;;;17.95;71.29;95200.06;5069130;28;20193;-70
2023/09/27 04:50:11;;;;;;;13.90;4.07;;;;;;;18.00;71.08;95198.25;5069836;28;20182;-70
2023/09/27 04:52:38;;;;;;;17.42;4.60;;;;;;;18.05;71.18;95210.84;5069730;28;20182;-70
2023/09/27 04:55:05;;;;;;;14.48;5.60;;;;;;;18.09;71.25;95202.09;5069669;28;20680;-70
2023/09/27 04:57:30;;;;;;;12.38;4.43;;;;;;;18.36;70.22;95206.66;5069893;28;20178;-70
2023/09/27 04:59:56;;;;;;;11.68;4.72;;;;;;;18.87;68.62;95215.97;5069398;28;20675;-70
2023/09/27 05:02:21;;;;;;;13.85;4.03;;;;;;;19.45;67.19;95211.66;5069545;28;20182;-70
2023/09/27 05:04:47;;;;;;;14.60;4.00;;;;;;;19.85;65.39;95222.59;5069531;28;20179;-70
2023/09/27 05:07:21;;;;;;;12.57;4.53;;;;;;;20.03;64.38;95218.66;5068989;28;20216;-70
2023/09/27 05:09:47;;;;;;;7.78;3.63;;;;;;;20.45;63.37;95217.78;5069160;28;20635;-70
2023/09/27 05:12:13;;;;;;;7.88;3.60;;;;;;;20.92;61.07;95226.44;5069025;28;20171;-70
2023/09/27 05:14:39;;;;;;;16.58;4.05;;;;;;;21.07;60.49;95231.00;5069223;28;20198;-70
2023/09/27 05:17:04;;;;;;;10.18;3.85;;;;;;;20.86;61.14;95224.00;5069479;28;20720;-70
2023/09/27 05:19:30;;;;;;;9.45;3.25;;;;;;;21.04;60.45;95226.16;5069587;28;20194;-71
2023/09/27 05:21:55;;;;;;;10.10;3.97;;;;;;;20.97;60.50;95226.44;5068894;28;20213;-71
2023/09/27 05:24:21;;;;;;;12.85;4.10;;;;;;;21.23;60.51;95229.97;5068147;28;20240;-70
2023/09/27 05:26:47;;;;;;;8.63;4.22;;;;;;;21.16;60.57;95220.56;5068992;28;20589;-70
2023/09/27 05:29:13;;;;;;;8.20;4.00;;;;;;;21.23;60.51;95224.59;5068133;28;20269;-70
2023/09/27 05:31:40;;;;;;;13.65;4.07;;;;;;;21.30;60.58;95232.38;5069293;28;20178;-71
2023/09/27 05:34:06;;;;;;;13.07;4.47;;;;;;;21.33;60.26;95224.63;5069415;28;20182;-71
2023/09/27 05:36:31;;;;;;;8.27;3.92;;;;;;;21.27;60.29;95233.72;5063689;28;20909;-70
2023/09/27 05:38:56;;;;;;;16.02;3.85;;;;;;;20.74;60.87;95228.81;5069513;28;20566;-70
2023/09/27 05:41:22;;;;;;;8.25;3.97;;;;;;;20.69;62.09;95225.06;5069310;28;20301;-70
2023/09/27 05:43:48;;;;;;;9.32;4.45;;;;;;;20.87;61.27;95225.63;5069166;28;20647;-71
2023/09/27 05:46:13;;;;;;;12.75;4.55;;;;;;;20.99;61.25;95231.53;5069321;28;20327;-70
2023/09/27 05:48:39;;;;;;;5.80;3.38;;;;;;;21.27;60.12;95235.59;5068788;28;20181;-71
2023/09/27 05:51:05;;;;;;;11.40;3.20;;;;;;;21.18;60.46;95239.88;5068961;28;20197;-70
2023/09/27 05:53:31;;;;;;;14.82;4.82;;;;;;;21.59;59.59;95235.31;5068851;28;20182;-71
2023/09/27 05:55:59;;;;;;;5.90;3.35;;;;;;;21.37;58.76;95212.28;5068915;28;20178;-70
2023/09/27 05:58:24;;;;;;;8.45;4.13;;;;;;;21.72;58.30;95232.84;5068939;28;20205;-70
2023/09/27 06:00:52;;;;;;;11.32;3.47;;;;;;;22.23;57.41;95235.41;5068374;28;20186;-70
2023/09/27 06:03:17;;;;;;;13.82;3.85;;;;;;;22.80;55.77;95236.81;5068258;28;20174;-70
2023/09/27 06:05:43;;;;;;;7.90;3.47;;;;;;;22.94;54.32;95225.16;5068250;28;20626;-70
2023/09/27 06:08:08;;;;;;;9.10;3.85;;;;;;;23.59;53.64;95233.81;5067468;28;20276;-71
2023/09/27 06:10:33;;;;;;;12.02;3.55;;;;;;;24.37;51.26;95238.94;5068109;28;20241;-71
2023/09/27 06:12:59;;;;;;;12.15;3.95;;;;;;;24.82;50.12;95234.03;5068593;28;20178;-69
2023/09/27 06:15:24;;;;;;;10.32;3.05;;;;;;;25.66;48.01;95231.44;5068505;28;20296;-69
2023/09/27 06:17:50;;;;;;;11.20;3.60;;;;;;;26.14;47.56;95237.28;5068952;28;20181;-69
2023/09/27 06:20:22;;;;;;;10.13;3.22;;;;;;;27.09;45.17;95239.13;5068571;28;20178;-69
2023/09/27 06:22:52;;;;;;;10.23;3.42;;;;;;;27.25;44.17;95243.06;5068359;28;20222;-69
2023/09/27 06:25:18;;;;;;;11.75;3.53;;;;;;;26.97;44.52;95225.34;5072110;28;20186;-69
2023/09/27 06:27:44;;;;;;;6.70;3.10;;;;;;;26.55;45.65;95242.72;5072456;28;20175;-71
2023/09/27 06:30:11;;;;;;;11.73;3.80;;;;;;;25.68;47.33;95251.63;5072431;28;20205;-71
2023/09/27 06:32:37;;;;;;;11.68;4.15;;;;;;;25.21;48.43;95233.75;5072526;28;20659;-70
2023/09/27 06:35:12;;;;;;;8.07;3.60;;;;;;;25.56;48.44;95256.63;5072565;28;20186;-70
2023/09/27 06:37:39;;;;;;;9.02;3.33;;;;;;;26.32;47.01;95257.22;5071103;28;20194;-70
2023/09/27 06:40:08;;;;;;;7.80;3.65;;;;;;;26.68;44.92;95261.59;5071879;28;20347;-69
2023/09/27 06:42:33;;;;;;;9.20;3.17;;;;;;;25.12;48.82;95241.69;5072282;28;20185;-71
2023/09/27 06:44:59;;;;;;;12.48;3.88;;;;;;;25.93;47.09;95253.06;5072653;28;20174;-70
2023/09/27 06:47:24;;;;;;;10.98;3.30;;;;;;;26.27;45.82;95244.63;5072415;28;20639;-71
2023/09/27 06:49:51;;;;;;;10.95;3.70;;;;;;;26.81;44.87;95242.97;5072250;28;20173;-71
2023/09/27 06:52:16;;;;;;;14.93;3.45;;;;;;;26.67;44.92;95257.28;5070835;28;20181;-71
2023/09/27 06:54:41;;;;;;;10.98;3.88;;;;;;;26.95;45.10;95260.00;5072032;28;20175;-70
2023/09/27 06:57:07;;;;;;;11.93;3.53;;;;;;;27.31;44.28;95254.56;5070276;28;20187;-70
2023/09/27 06:59:32;;;;;;;16.77;4.30;;;;;;;27.47;43.28;95263.13;5071782;28;20202;-70
2023/09/27 07:01:57;;;;;;;20.30;3.72;;;;;;;26.95;44.10;95265.41;5071888;28;20265;-70
2023/09/27 07:04:23;;;;;;;17.58;4.22;;;;;;;26.59;45.32;95249.91;5071630;28;20182;-70
2023/09/27 07:06:48;;;;;;;11.45;3.25;;;;;;;26.59;45.15;95270.72;5071308;28;20183;-70
2023/09/27 07:09:16;;;;;;;9.80;3.22;;;;;;;25.55;46.52;95268.50;5071627;28;20701;-70
2023/09/27 07:11:44;;;;;;;8.88;3.45;;;;;;;25.98;46.65;95273.75;5071615;28;20182;-71
2023/09/27 07:14:10;;;;;;;8.50;3.40;;;;;;;25.33;47.45;95271.84;5070379;28;20178;-70
2023/09/27 07:16:35;;;;;;;7.65;3.05;;;;;;;25.41;48.21;95270.38;5070565;28;20183;-70
2023/09/27 07:19:03;;;;;;;12.80;3.92;;;;;;;25.64;47.23;95266.78;5071669;28;20685;-71
2023/09/27 07:21:30;;;;;;;9.32;3.45;;;;;;;24.88;48.18;95264.38;5069767;28;20197;-69
2023/09/27 07:23:55;;;;;;;7.35;3.05;;;;;;;24.65;49.60;95258.75;5071362;28;20309;-70
2023/09/27 07:26:21;;;;;;;8.88;3.70;;;;;;;24.58;49.62;95262.88;5071245;28;20269;-70
2023/09/27 07:28:46;;;;;;;6.88;3.60;;;;;;;23.90;50.96;95250.44;5071347;28;20170;-70
2023/09/27 07:31:16;;;;;;;7.60;3.33;;;;;;;23.99;51.74;95264.06;5071170;28;20261;-70
2023/09/27 07:33:44;;;;;;;8.63;3.40;;;;;;;24.13;51.20;95256.13;5070831;28;20698;-70
2023/09/27 07:36:09;;;;;;;10.45;3.35;;;;;;;24.22;50.68;95270.56;5071332;28;20178;-70
2023/09/27 07:38:37;;;;;;;8.20;3.42;;;;;;;24.33;51.20;95261.31;5071077;28;20194;-70
2023/09/27 07:41:03;;;;;;;9.52;3.50;;;;;;;24.17;51.14;95266.03;5071323;28;20177;-70
2023/09/27 07:43:29;;;;;;;10.35;3.10;;;;;;;24.48;51.01;95260.31;5070780;28;20184;-70
2023/09/27 07:45:55;;;;;;;13.57;4.80;;;;;;;24.78;49.06;95265.31;5070731;28;20670;-70
2023/09/27 07:48:21;;;;;;;5.57;3.22;;;;;;;24.16;50.40;95264.44;5069984;28;20167;-70
2023/09/27 07:50:47;;;;;;;8.20;3.55;;;;;;;24.25;50.48;95257.34;5070142;28;20202;-70
2023/09/27 07:53:13;;;;;;;9.48;3.75;;;;;;;24.65;49.58;95263.34;5070903;28;20209;-70
2023/09/27 07:55:46;;;;;;;7.57;2.97;;;;;;;24.93;49.16;95254.38;5069635;28;20261;-70
2023/09/27 07:58:13;;;;;;;11.40;3.60;;;;;;;25.23;48.97;95268.50;5065966;28;20720;-70
2023/09/27 08:00:41;;;;;;;5.57;2.97;;;;;;;24.73;47.16;95235.78;5070470;28;20176;-70
2023/09/27 08:03:10;;;;;;;8.68;3.22;;;;;;;24.44;49.05;95235.88;5069518;28;20647;-70
2023/09/27 08:05:42;;;;;;;8.15;3.10;;;;;;;24.46;49.04;95255.25;5069946;28;20539;-70
2023/09/27 08:08:12;;;;;;;9.63;2.90;;;;;;;24.00;50.03;95254.91;5069781;28;20193;-70
2023/09/27 08:10:43;;;;;;;13.40;3.13;;;;;;;23.95;50.16;95245.03;5068147;28;20174;-70
2023/09/27 08:13:16;;;;;;;11.45;3.55;;;;;;;23.54;51.32;95241.91;5070113;28;20166;-70
2023/09/27 08:15:46;;;;;;;9.35;3.00;;;;;;;23.20;52.08;95247.25;5067721;28;20193;-70
2023/09/27 08:18:12;;;;;;;5.80;2.55;;;;;;;23.12;52.12;95241.69;5068042;28;20233;-70
2023/09/27 08:20:38;;;;;;;10.90;3.03;;;;;;;23.06;52.25;95224.81;5069983;28;20573;-70
2023/09/27 08:23:03;;;;;;;4.95;2.85;;;;;;;23.31;51.59;95229.19;5068701;28;20214;-70
2023/09/27 08:25:29;;;;;;;10.98;3.00;;;;;;;23.84;51.21;95251.59;5069925;28;20183;-70
2023/09/27 08:27:55;;;;;;;13.10;2.78;;;;;;;24.08;50.32;95238.16;5069466;28;20617;-70
2023/09/27 08:30:21;;;;;;;5.68;2.85;;;;;;;24.08;50.12;95236.25;5069382;28;20178;-69
2023/09/27 08:32:46;;;;;;;13.35;3.45;;;;;;;24.23;49.55;95246.06;5070127;28;20253;-69
2023/09/27 08:35:12;;;;;;;6.18;2.72;;;;;;;24.18;49.45;95235.34;5069799;28;20253;-70
2023/09/27 08:37:38;;;;;;;9.20;2.92;;;;;;;23.97;49.87;95245.50;5069684;28;20239;-70
2023/09/27 08:40:05;;;;;;;7.07;2.95;;;;;;;23.81;49.75;95248.66;5068768;28;20247;-70
2023/09/27 08:42:34;;;;;;;5.78;2.88;;;;;;;23.61;50.27;95247.75;5070036;28;20166;-71
2023/09/27 08:45:01;;;;;;;9.85;2.88;;;;;;;23.73;50.58;95242.00;5067640;28;20522;-70
2023/09/27 08:47:28;;;;;;;14.85;3.20;;;;;;;23.75;50.26;95245.22;5069698;28;20176;-70
2023/09/27 08:49:55;;;;;;;6.85;3.20;;;;;;;23.82;50.37;95244.88;5069741;28;20201;-69
2023/09/27 08:52:22;;;;;;;4.63;1.98;;;;;;;23.52;50.60;95248.66;5069898;28;20166;-70
2023/09/27 08:54:48;;;;;;;7.75;2.70;;;;;;;23.16;51.39;95226.63;5068675;28;20181;-69
2023/09/27 08:57:14;;;;;;;7.88;3.55;;;;;;;23.46;51.90;95239.00;5069346;28;20183;-69
2023/09/27 08:59:39;;;;;;;12.13;3.60;;;;;;;23.48;51.97;95216.13;5067942;28;20297;-69
2023/09/27 09:02:05;;;;;;;4.70;2.75;;;;;;;24.05;52.04;95249.47;5068774;28;20190;-70
2023/09/27 09:04:32;;;;;;;5.40;3.17;;;;;;;24.35;50.35;95234.91;5065617;28;20247;-70
2023/09/27 09:06:59;;;;;;;11.77;3.42;;;;;;;24.30;48.94;95229.59;5065269;28;20701;-69
2023/09/27 09:09:26;;;;;;;5.97;2.60;;;;;;;24.19;48.95;95236.16;5062845;28;20251;-69
2023/09/27 09:11:58;;;;;;;7.60;3.10;;;;;;;24.34;48.82;95238.69;5065237;28;20259;-69
2023/09/27 09:14:44;;;;;;;10.80;2.40;;;;;;;24.63;49.55;95244.78;5064634;28;20598;-69
2023/09/27 09:17:11;;;;;;;6.93;2.67;;;;;;;24.81;47.82;95245.91;5067620;28;20249;-69
2023/09/27 09:19:38;;;;;;;12.98;3.92;;;;;;;24.86;48.36;95235.03;5068189;28;20202;-69
2023/09/27 09:22:09;;;;;;;15.55;4.25;;;;;;;24.90;47.86;95232.56;5069203;28;20725;-70
2023/09/27 09:24:43;;;;;;;7.25;3.05;;;;;;;24.95;47.45;95243.31;5069858;28;20185;-70
2023/09/27 09:27:17;;;;;;;4.88;2.85;;;;;;;24.53;48.12;95218.00;5068715;28;20162;-69
2023/09/27 09:29:53;;;;;;;7.85;3.70;;;;;;;24.51;49.07;95228.25;5069179;28;20162;-69
2023/09/27 09:32:20;;;;;;;16.70;3.05;;;;;;;24.28;49.47;95227.19;5068731;28;20248;-69
2023/09/27 09:34:53;;;;;;;26.92;3.78;;;;;;;24.24;48.96;95207.31;5069174;28;20261;-70
2023/09/27 09:37:22;;;;;;;11.63;2.88;;;;;;;24.13;49.82;95229.22;5069217;28;20209;-69
2023/09/27 09:39:52;;;;;;;7.47;2.85;;;;;;;23.89;50.22;95210.38;5069669;28;20206;-69
2023/09/27 09:42:35;;;;;;;8.63;3.13;;;;;;;23.98;49.71;95214.03;5069622;28;20206;-69
2023/09/27 09:45:10;;;;;;;6.43;2.83;;;;;;;24.16;49.29;95207.91;5069894;28;20174;-69
2023/09/27 09:47:43;;;;;;;13.65;3.03;;;;;;;24.15;49.22;95209.00;5068725;28;20667;-69
2023/09/27 09:50:16;;;;;;;11.35;3.35;;;;;;;24.19;48.95;95210.03;5069642;28;20166;-69
2023/09/27 09:52:54;;;;;;;9.45;2.88;;;;;;;24.11;48.40;95202.59;5069860;28;20213;-69
2023/09/27 09:55:25;;;;;;;7.45;2.70;;;;;;;24.23;49.16;95212.97;5069824;28;20227;-69
2023/09/27 09:58:10;;;;;;;7.35;3.92;;;;;;;24.18;49.39;95204.94;5071844;28;20585;-69
2023/09/27 10:00:38;;;;;;;9.07;3.22;;;;;;;24.22;48.52;95209.47;5066149;28;20179;-69
2023/09/27 10:03:15;;;;;;;7.25;2.80;;;;;;;24.27;48.82;95206.75;5070238;28;20186;-69
2023/09/27 10:05:42;;;;;;;7.30;2.97;;;;;;;24.03;48.98;95208.63;5072943;28;20166;-70
2023/09/27 10:08:08;;;;;;;6.45;3.22;;;;;;;23.86;48.92;95203.69;5071166;28;20236;-70
2023/09/27 10:10:35;;;;;;;5.72;2.90;;;;;;;23.72;49.69;95196.56;5072806;28;20551;-69
2023/09/27 10:13:04;;;;;;;5.10;3.22;;;;;;;23.68;50.22;95191.78;5072753;28;20178;-70
2023/09/27 10:15:33;;;;;;;12.23;3.42;;;;;;;23.74;50.80;95192.53;5072847;28;20178;-70
2023/09/27 10:18:23;;;;;;;5.75;2.85;;;;;;;23.99;50.38;95188.75;5072618;28;20706;-70
2023/09/27 10:21:05;;;;;;;12.15;3.10;;;;;;;23.91;49.78;95189.38;5072516;28;20187;-70
2023/09/27 10:23:53;;;;;;;12.02;3.75;;;;;;;23.95;49.56;95193.91;5072610;28;20218;-70
2023/09/27 10:26:20;;;;;;;5.53;2.85;;;;;;;23.95;49.89;95190.44;5071995;28;20218;-70
2023/09/27 10:29:01;;;;;;;12.63;3.40;;;;;;;23.98;50.02;95187.94;5072733;28;20171;-70
2023/09/27 10:31:27;;;;;;;5.97;3.30;;;;;;;24.02;49.98;95180.91;5072133;28;20170;-70
2023/09/27 10:33:53;;;;;;;8.60;2.83;;;;;;;23.99;49.90;95183.38;5072468;28;20634;-70
2023/09/27 10:36:18;;;;;;;6.93;2.72;;;;;;;23.87;49.91;95175.69;5070689;28;20218;-70
2023/09/27 10:38:44;;;;;;;8.05;2.92;;;;;;;23.84;50.48;95173.59;5071639;28;20198;-70
2023/09/27 10:41:33;;;;;;;6.95;2.90;;;;;;;23.78;50.61;95180.13;5072299;28;20551;-70
2023/09/27 10:44:02;;;;;;;3.80;2.50;;;;;;;23.75;50.18;95166.44;5072025;28;20183;-70
2023/09/27 10:46:41;;;;;;;9.35;2.88;;;;;;;23.57;51.19;95176.03;5070787;28;20185;-70
2023/09/27 10:49:06;;;;;;;6.30;2.90;;;;;;;23.42;51.88;95179.66;5072150;28;20185;-70
2023/09/27 10:51:32;;;;;;;7.25;2.85;;;;;;;23.52;51.84;95168.84;5071964;28;20178;-70
2023/09/27 10:53:57;;;;;;;10.27;3.20;;;;;;;23.63;51.54;95164.94;5072083;28;20202;-69
2023/09/27 10:56:23;;;;;;;8.35;3.72;;;;;;;23.75;51.32;95161.06;5072078;28;20261;-70
2023/09/27 10:58:52;;;;;;;14.40;3.03;;;;;;;23.83;50.89;95163.13;5071752;28;20256;-70
2023/09/27 11:01:21;;;;;;;8.15;2.70;;;;;;;23.63;51.26;95158.75;5071550;28;20178;-70
2023/09/27 11:03:46;;;;;;;7.75;3.00;;;;;;;23.52;51.88;95154.59;5072423;28;20332;-69
2023/09/27 11:06:14;;;;;;;6.45;2.72;;;;;;;23.60;52.10;95143.22;5070480;28;20265;-70
2023/09/27 11:08:40;;;;;;;10.02;3.08;;;;;;;23.68;51.25;95140.69;5070885;28;20190;-70
2023/09/27 11:11:11;;;;;;;8.52;2.85;;;;;;;23.79;51.13;95146.75;5071599;28;20187;-69
2023/09/27 11:13:45;;;;;;;8.93;3.17;;;;;;;23.87;51.21;95145.34;5071798;28;20320;-70
2023/09/27 11:16:18;;;;;;;11.02;2.80;;;;;;;23.98;50.76;95146.78;5071821;28;20661;-70
2023/09/27 11:18:45;;;;;;;12.00;2.92;;;;;;;23.96;49.94;95130.13;5071501;28;20665;-70
2023/09/27 11:21:14;;;;;;;8.80;2.70;;;;;;;23.87;50.68;95137.25;5071642;28;20182;-69
2023/09/27 11:23:58;;;;;;;10.00;2.78;;;;;;;23.98;50.92;95133.34;5071688;28;20229;-70
2023/09/27 11:26:29;;;;;;;11.57;2.75;;;;;;;23.94;50.33;95143.09;5071711;28;20182;-70
2023/09/27 11:29:03;;;;;;;9.82;2.90;;;;;;;23.87;51.16;95139.97;5071568;28;20174;-70